Climatologie pour Saint-Brevin les Pins
Jour • Résumé pour mars 2, 2017 Système :  Métrique    Anglais   Mixte
« - 1 jour
+ 1 jour »
Jour Semaine Mois Année Personnalisé
  Maximum : Minimum : Moyenne :
Température sous abri : 12.2 °C 3.3 °C 8.1 °C
Point de rosée : 8.4 °C 2.9 °C 5.9 °C
Humidité : 99 % 62 % 87 %
Vitesse du vent : 16.1 km/h 0.0 km/h 3.5 km/h
Rafale : 27.4 km/h - -
Direction :- - SSW
Pression : 1018.8 hPa 1010.4 hPa -
Précipitations : 0.3 mm    
Historical Graphs
 
 
Tableau de données pour mars 2, 2017
Heure Tempé Pt rosée Pression Vent Vitesse Rafale Humidité Taux pluie (/hr) Soleil
00:00 8.6 °C 6.8 °C 1013.4 hPa WNW 6.4 km/h 27.4 km/h 89 % 0.0 mm 0 W/m2
00:05 8.6 °C 6.8 °C 1013.8 hPa West 9.7 km/h 27.4 km/h 89 % 0.0 mm 0 W/m2
00:10 8.5 °C 6.6 °C 1013.8 hPa WNW 9.7 km/h 19.3 km/h 88 % 0.0 mm 0 W/m2
00:15 8.3 °C 6.6 °C 1013.8 hPa WNW 4.8 km/h 19.3 km/h 89 % 0.0 mm 0 W/m2
00:20 8.2 °C 6.7 °C 1013.8 hPa WNW 6.4 km/h 16.1 km/h 90 % 0.0 mm 0 W/m2
00:25 8.1 °C 6.6 °C 1013.8 hPa WNW 8.0 km/h 14.5 km/h 90 % 0.0 mm 0 W/m2
00:30 8.1 °C 6.5 °C 1014.1 hPa WNW 4.8 km/h 11.3 km/h 90 % 0.0 mm 0 W/m2
00:35 7.8 °C 6.3 °C 1014.1 hPa WNW 6.4 km/h 11.3 km/h 90 % 0.0 mm 0 W/m2
00:40 7.6 °C 6.2 °C 1014.1 hPa NW 8.0 km/h 11.3 km/h 91 % 0.0 mm 0 W/m2
00:45 7.5 °C 6.3 °C 1014.1 hPa WNW 4.8 km/h 11.3 km/h 92 % 0.0 mm 0 W/m2
00:50 7.6 °C 6.4 °C 1014.1 hPa NW 3.2 km/h 11.3 km/h 92 % 0.0 mm 0 W/m2
00:55 7.4 °C 6.2 °C 1014.1 hPa WNW 8.0 km/h 9.7 km/h 92 % 0.0 mm 0 W/m2
01:00 7.3 °C 6.3 °C 1014.1 hPa WNW 4.8 km/h 9.7 km/h 93 % 0.0 mm 0 W/m2
01:05 7.2 °C 6.2 °C 1014.4 hPa WNW 3.2 km/h 8.0 km/h 93 % 0.0 mm 0 W/m2
01:10 7.1 °C 6.0 °C 1014.4 hPa WNW 1.6 km/h 8.0 km/h 93 % 0.0 mm 0 W/m2
01:15 7.0 °C 6.1 °C 1014.4 hPa WNW 4.8 km/h 8.0 km/h 94 % 0.0 mm 0 W/m2
01:20 7.0 °C 6.1 °C 1014.4 hPa NW 6.4 km/h 9.7 km/h 94 % 0.0 mm 0 W/m2
01:25 6.9 °C 6.0 °C 1014.8 hPa WNW 3.2 km/h 9.7 km/h 94 % 0.0 mm 0 W/m2
01:30 6.8 °C 5.9 °C 1014.8 hPa WNW 4.8 km/h 9.7 km/h 94 % 0.0 mm 0 W/m2
01:35 6.8 °C 5.9 °C 1014.8 hPa WNW 3.2 km/h 11.3 km/h 94 % 0.0 mm 0 W/m2
01:40 6.7 °C 5.8 °C 1014.8 hPa WNW 4.8 km/h 11.3 km/h 94 % 0.0 mm 0 W/m2
01:45 6.5 °C 5.8 °C 1014.8 hPa WNW 3.2 km/h 8.0 km/h 95 % 0.0 mm 0 W/m2
01:50 6.3 °C 5.6 °C 1014.8 hPa WNW 3.2 km/h 8.0 km/h 95 % 0.0 mm 0 W/m2
01:55 6.2 °C 5.5 °C 1014.8 hPa WNW 1.6 km/h 8.0 km/h 95 % 0.0 mm 0 W/m2
02:00 6.1 °C 5.3 °C 1015.1 hPa WNW 6.4 km/h 9.7 km/h 95 % 0.0 mm 0 W/m2
02:05 6.1 °C 5.3 °C 1015.1 hPa WNW 3.2 km/h 9.7 km/h 95 % 0.0 mm 0 W/m2
02:10 6.0 °C 5.4 °C 1015.1 hPa WNW 3.2 km/h 8.0 km/h 96 % 0.0 mm 0 W/m2
02:15 5.9 °C 5.4 °C 1015.1 hPa WNW 3.2 km/h 8.0 km/h 96 % 0.0 mm 0 W/m2
02:20 5.8 °C 5.2 °C 1015.1 hPa Calm   6.4 km/h 96 % 0.0 mm 0 W/m2
02:25 5.7 °C 5.1 °C 1015.1 hPa WNW 3.2 km/h 6.4 km/h 96 % 0.0 mm 0 W/m2
02:30 5.6 °C 5.0 °C 1015.5 hPa WNW 3.2 km/h 6.4 km/h 96 % 0.0 mm 0 W/m2
02:35 5.4 °C 4.9 °C 1015.5 hPa WNW 1.6 km/h 6.4 km/h 96 % 0.0 mm 0 W/m2
02:40 5.7 °C 5.1 °C 1015.5 hPa West 1.6 km/h 8.0 km/h 96 % 0.0 mm 0 W/m2
02:45 5.7 °C 5.1 °C 1015.5 hPa West 1.6 km/h 8.0 km/h 96 % 0.0 mm 0 W/m2
02:50 5.7 °C 5.1 °C 1015.5 hPa WSW 6.4 km/h 8.0 km/h 96 % 0.0 mm 0 W/m2
02:55 5.7 °C 5.1 °C 1015.5 hPa West 3.2 km/h 8.0 km/h 96 % 0.0 mm 0 W/m2
03:00 5.7 °C 5.1 °C 1015.5 hPa West 4.8 km/h 8.0 km/h 96 % 0.0 mm 0 W/m2
03:05 5.7 °C 5.2 °C 1015.5 hPa WNW 3.2 km/h 8.0 km/h 97 % 0.0 mm 0 W/m2
03:10 5.6 °C 5.0 °C 1015.5 hPa WNW 4.8 km/h 11.3 km/h 96 % 0.0 mm 0 W/m2
03:15 5.3 °C 4.7 °C 1015.5 hPa WNW 4.8 km/h 11.3 km/h 96 % 0.0 mm 0 W/m2
03:20 5.5 °C 5.1 °C 1015.5 hPa WNW 3.2 km/h 8.0 km/h 97 % 0.0 mm 0 W/m2
03:25 5.7 °C 5.1 °C 1015.5 hPa West 4.8 km/h 8.0 km/h 96 % 0.0 mm 0 W/m2
03:30 5.7 °C 5.1 °C 1015.5 hPa West 4.8 km/h 8.0 km/h 96 % 0.0 mm 0 W/m2
03:35 5.8 °C 5.2 °C 1015.5 hPa West 4.8 km/h 6.4 km/h 96 % 0.0 mm 0 W/m2
03:40 5.6 °C 4.8 °C 1015.5 hPa Calm   4.8 km/h 95 % 0.0 mm 0 W/m2
03:45 5.3 °C 4.6 °C 1015.5 hPa Calm   4.8 km/h 95 % 0.0 mm 0 W/m2
03:50 5.1 °C 4.5 °C 1015.5 hPa West 1.6 km/h 4.8 km/h 96 % 0.0 mm 0 W/m2
03:55 4.8 °C 4.2 °C 1015.5 hPa West 4.8 km/h 4.8 km/h 96 % 0.0 mm 0 W/m2
04:00 4.8 °C 4.2 °C 1015.5 hPa Calm   4.8 km/h 96 % 0.0 mm 0 W/m2
04:05 4.7 °C 4.1 °C 1015.5 hPa Calm   4.8 km/h 96 % 0.0 mm 0 W/m2
04:10 4.7 °C 4.3 °C 1015.8 hPa Calm   4.8 km/h 97 % 0.0 mm 0 W/m2
04:20 4.6 °C 4.2 °C 1015.5 hPa Calm   4.8 km/h 97 % 0.0 mm 0 W/m2
04:25 4.6 °C 4.1 °C 1015.5 hPa Calm   4.8 km/h 97 % 0.0 mm 0 W/m2
04:30 4.6 °C 4.1 °C 1015.5 hPa Calm   4.8 km/h 97 % 0.0 mm 0 W/m2
04:35 4.4 °C 4.0 °C 1015.5 hPa Calm   4.8 km/h 97 % 0.0 mm 0 W/m2
04:40 4.3 °C 3.8 °C 1015.5 hPa West 1.6 km/h 4.8 km/h 97 % 0.0 mm 0 W/m2
04:45 4.2 °C 3.8 °C 1015.8 hPa Calm   4.8 km/h 97 % 0.0 mm 0 W/m2
04:50 4.4 °C 4.0 °C 1015.8 hPa West 1.6 km/h 4.8 km/h 97 % 0.0 mm 0 W/m2
04:55 4.5 °C 4.1 °C 1015.8 hPa WSW 1.6 km/h 6.4 km/h 97 % 0.0 mm 0 W/m2
05:00 4.4 °C 4.0 °C 1015.8 hPa WSW 1.6 km/h 6.4 km/h 97 % 0.0 mm 0 W/m2
05:05 4.6 °C 4.2 °C 1015.8 hPa WSW 3.2 km/h 4.8 km/h 97 % 0.0 mm 0 W/m2
05:10 4.7 °C 4.4 °C 1015.8 hPa Calm   6.4 km/h 98 % 0.0 mm 0 W/m2
05:15 4.7 °C 4.4 °C 1015.8 hPa Calm   6.4 km/h 98 % 0.0 mm 0 W/m2
05:20 4.7 °C 4.4 °C 1016.1 hPa West 1.6 km/h 11.3 km/h 98 % 0.0 mm 0 W/m2
05:25 5.1 °C 4.8 °C 1016.1 hPa West 3.2 km/h 11.3 km/h 98 % 0.0 mm 0 W/m2
05:30 5.4 °C 5.2 °C 1016.1 hPa WNW 3.2 km/h 11.3 km/h 98 % 0.0 mm 0 W/m2
05:35 5.8 °C 5.5 °C 1016.1 hPa West 1.6 km/h 11.3 km/h 98 % 0.0 mm 0 W/m2
05:40 6.0 °C 5.7 °C 1016.1 hPa WNW 4.8 km/h 11.3 km/h 98 % 0.0 mm 0 W/m2
05:45 5.8 °C 5.3 °C 1016.1 hPa West 4.8 km/h 11.3 km/h 97 % 0.0 mm 0 W/m2
05:50 5.9 °C 5.6 °C 1016.1 hPa West 3.2 km/h 6.4 km/h 98 % 0.0 mm 0 W/m2
05:55 5.9 °C 5.6 °C 1016.1 hPa West 1.6 km/h 6.4 km/h 98 % 0.0 mm 0 W/m2
06:00 5.8 °C 5.3 °C 1016.1 hPa West 3.2 km/h 6.4 km/h 97 % 0.0 mm 0 W/m2
06:05 5.4 °C 5.0 °C 1016.5 hPa Calm   4.8 km/h 97 % 0.0 mm 0 W/m2
06:10 4.9 °C 4.5 °C 1016.5 hPa Calm   4.8 km/h 97 % 0.0 mm 0 W/m2
06:15 4.7 °C 4.3 °C 1016.5 hPa Calm   4.8 km/h 97 % 0.0 mm 0 W/m2
06:20 4.7 °C 4.4 °C 1016.5 hPa Calm   1.6 km/h 98 % 0.0 mm 0 W/m2
06:25 4.5 °C 4.1 °C 1016.5 hPa Calm   1.6 km/h 97 % 0.0 mm 0 W/m2
06:35 4.2 °C 3.7 °C 1016.5 hPa Calm     97 % 0.0 mm 0 W/m2
06:40 3.8 °C 3.4 °C 1016.5 hPa Calm     97 % 0.0 mm 0 W/m2
06:45 3.8 °C 3.3 °C 1016.8 hPa Calm     97 % 0.0 mm 0 W/m2
06:50 3.5 °C 3.1 °C 1016.8 hPa Calm     97 % 0.0 mm 0 W/m2
06:55 3.5 °C 3.2 °C 1016.8 hPa West 3.2 km/h 3.2 km/h 98 % 0.0 mm 0 W/m2
07:00 3.7 °C 3.4 °C 1016.8 hPa Calm   3.2 km/h 98 % 0.0 mm 0 W/m2
07:05 3.3 °C 2.9 °C 1016.8 hPa Calm   3.2 km/h 97 % 0.0 mm 0 W/m2
07:10 3.3 °C 3.0 °C 1016.8 hPa Calm   1.6 km/h 98 % 0.0 mm 0 W/m2
07:15 3.4 °C 3.1 °C 1016.8 hPa West 1.6 km/h 3.2 km/h 98 % 0.0 mm 0 W/m2
07:20 3.5 °C 3.2 °C 1016.8 hPa Calm   3.2 km/h 98 % 0.0 mm 0 W/m2
07:25 3.6 °C 3.3 °C 1016.8 hPa Calm   3.2 km/h 98 % 0.0 mm 0 W/m2
07:30 3.6 °C 3.3 °C 1017.2 hPa Calm   3.2 km/h 98 % 0.0 mm 0 W/m2
07:40 3.8 °C 3.5 °C 1016.8 hPa Calm     98 % 0.0 mm 0 W/m2
07:45 3.8 °C 3.5 °C 1017.2 hPa Calm     98 % 0.0 mm 0 W/m2
07:50 3.9 °C 3.6 °C 1017.2 hPa Calm   3.2 km/h 98 % 0.0 mm 0 W/m2
07:55 3.9 °C 3.7 °C 1017.5 hPa Calm   3.2 km/h 98 % 0.0 mm 7 W/m2
08:00 4.1 °C 3.8 °C 1017.2 hPa Calm   4.8 km/h 98 % 0.0 mm 9 W/m2
08:05 3.9 °C 3.7 °C 1017.2 hPa Calm   4.8 km/h 98 % 0.0 mm 14 W/m2
08:10 3.9 °C 3.7 °C 1017.2 hPa Calm   3.2 km/h 98 % 0.0 mm 12 W/m2
08:15 3.8 °C 3.5 °C 1017.5 hPa Calm   1.6 km/h 98 % 0.0 mm 23 W/m2
08:20 4.1 °C 3.8 °C 1017.2 hPa Calm   1.6 km/h 98 % 0.0 mm 40 W/m2
08:25 4.1 °C 3.8 °C 1017.5 hPa Calm   1.6 km/h 98 % 0.0 mm 40 W/m2
08:30 4.0 °C 3.7 °C 1017.5 hPa Calm     98 % 0.0 mm 51 W/m2
08:35 4.1 °C 3.8 °C 1017.5 hPa Calm     98 % 0.0 mm 62 W/m2
08:40 4.4 °C 4.2 °C 1017.5 hPa Calm     98 % 0.0 mm 44 W/m2
08:45 4.6 °C 4.3 °C 1017.5 hPa Calm     98 % 0.0 mm 51 W/m2
08:50 4.6 °C 4.3 °C 1017.8 hPa Calm     98 % 0.0 mm 49 W/m2
08:55 4.6 °C 4.3 °C 1017.8 hPa Calm     98 % 0.0 mm 60 W/m2
09:00 4.7 °C 4.4 °C 1017.8 hPa Calm     98 % 0.0 mm 65 W/m2
09:10 5.0 °C 4.7 °C 1018.2 hPa Calm     98 % 0.0 mm 79 W/m2
09:15 5.2 °C 4.9 °C 1018.2 hPa Calm     98 % 0.0 mm 98 W/m2
09:20 5.4 °C 5.1 °C 1018.2 hPa Calm     98 % 0.0 mm 100 W/m2
09:25 5.6 °C 5.4 °C 1018.5 hPa Calm     99 % 0.0 mm 130 W/m2
09:30 5.9 °C 5.7 °C 1018.5 hPa Calm     99 % 0.0 mm 111 W/m2
09:40 6.1 °C 5.8 °C 1018.5 hPa Calm     98 % 0.0 mm 111 W/m2
09:45 6.2 °C 5.9 °C 1018.5 hPa SSW 3.2 km/h 4.8 km/h 98 % 0.0 mm 135 W/m2
09:55 6.8 °C 6.5 °C 1018.5 hPa SSW 1.6 km/h 4.8 km/h 98 % 0.0 mm 165 W/m2
10:00 7.0 °C 6.7 °C 1018.5 hPa SSW 3.2 km/h 4.8 km/h 98 % 0.0 mm 183 W/m2
10:05 7.4 °C 7.1 °C 1018.5 hPa SSW 1.6 km/h 4.8 km/h 98 % 0.0 mm 200 W/m2
10:10 7.6 °C 7.3 °C 1018.5 hPa SSW 1.6 km/h 4.8 km/h 98 % 0.0 mm 190 W/m2
10:15 7.8 °C 7.5 °C 1018.5 hPa SSW 1.6 km/h 4.8 km/h 98 % 0.0 mm 185 W/m2
10:20 8.1 °C 7.8 °C 1018.5 hPa SSW 1.6 km/h 4.8 km/h 98 % 0.0 mm 207 W/m2
10:25 8.2 °C 7.8 °C 1018.5 hPa SSW 3.2 km/h 4.8 km/h 97 % 0.0 mm 200 W/m2
10:30 8.4 °C 7.9 °C 1018.5 hPa SSW 4.8 km/h 6.4 km/h 97 % 0.0 mm 200 W/m2
10:35 8.5 °C 7.9 °C 1018.5 hPa South 3.2 km/h 6.4 km/h 96 % 0.0 mm 202 W/m2
10:40 8.7 °C 8.1 °C 1018.5 hPa South 4.8 km/h 6.4 km/h 96 % 0.0 mm 209 W/m2
10:45 8.8 °C 8.2 °C 1018.5 hPa South 4.8 km/h 6.4 km/h 96 % 0.0 mm 234 W/m2
10:50 9.1 °C 8.3 °C 1018.5 hPa South 4.8 km/h 6.4 km/h 95 % 0.0 mm 230 W/m2
10:55 9.3 °C 8.4 °C 1018.5 hPa South 4.8 km/h 6.4 km/h 94 % 0.0 mm 221 W/m2
11:00 9.4 °C 8.3 °C 1018.5 hPa Calm   6.4 km/h 93 % 0.0 mm 230 W/m2
11:05 9.6 °C 8.3 °C 1018.5 hPa Calm   6.4 km/h 92 % 0.0 mm 257 W/m2
11:10 9.8 °C 8.4 °C 1018.5 hPa Calm   6.4 km/h 91 % 0.0 mm 271 W/m2
11:15 9.9 °C 8.2 °C 1018.5 hPa South 3.2 km/h 6.4 km/h 89 % 0.0 mm 276 W/m2
11:20 10.1 °C 8.2 °C 1018.5 hPa South 6.4 km/h 6.4 km/h 88 % 0.0 mm 295 W/m2
11:25 10.3 °C 8.2 °C 1018.8 hPa South 6.4 km/h 8.0 km/h 87 % 0.0 mm 288 W/m2
11:30 10.3 °C 7.7 °C 1018.5 hPa South 4.8 km/h 8.0 km/h 84 % 0.0 mm 302 W/m2
11:35 10.4 °C 7.7 °C 1018.8 hPa SSE 3.2 km/h 8.0 km/h 83 % 0.0 mm 302 W/m2
11:40 10.6 °C 7.4 °C 1018.8 hPa SE 1.6 km/h 8.0 km/h 81 % 0.0 mm 352 W/m2
11:45 10.7 °C 7.0 °C 1018.8 hPa South 1.6 km/h 8.0 km/h 78 % 0.0 mm 352 W/m2
11:50 10.8 °C 7.0 °C 1018.8 hPa South 6.4 km/h 8.0 km/h 77 % 0.0 mm 313 W/m2
11:55 10.8 °C 6.9 °C 1018.8 hPa South 4.8 km/h 8.0 km/h 77 % 0.0 mm 288 W/m2
12:00 10.9 °C 7.3 °C 1018.8 hPa Calm   8.0 km/h 78 % 0.0 mm 318 W/m2
12:05 10.9 °C 7.3 °C 1018.8 hPa Calm   8.0 km/h 78 % 0.0 mm 253 W/m2
12:10 10.8 °C 7.3 °C 1018.8 hPa South 3.2 km/h 8.0 km/h 79 % 0.0 mm 236 W/m2
12:15 10.7 °C 7.2 °C 1018.8 hPa SSW 3.2 km/h 8.0 km/h 79 % 0.0 mm 223 W/m2
12:20 10.6 °C 7.2 °C 1018.5 hPa SSW 8.0 km/h 9.7 km/h 80 % 0.0 mm 232 W/m2
12:25 10.6 °C 7.1 °C 1018.5 hPa SW 1.6 km/h 9.7 km/h 79 % 0.0 mm 258 W/m2
12:30 10.8 °C 7.5 °C 1018.5 hPa SSW 4.8 km/h 8.0 km/h 80 % 0.0 mm 246 W/m2
12:40 10.8 °C 7.0 °C 1018.5 hPa SSW 8.0 km/h 9.7 km/h 77 % 0.0 mm 265 W/m2
12:45 10.9 °C 7.2 °C 1018.5 hPa SE 3.2 km/h 9.7 km/h 78 % 0.0 mm 251 W/m2
12:50 11.0 °C 7.3 °C 1018.5 hPa SSE 4.8 km/h 11.3 km/h 78 % 0.0 mm 276 W/m2
12:55 11.0 °C 6.9 °C 1018.5 hPa South 6.4 km/h 11.3 km/h 76 % 0.0 mm 316 W/m2
13:00 11.0 °C 6.9 °C 1018.5 hPa SSE 3.2 km/h 11.3 km/h 76 % 0.0 mm 313 W/m2
13:05 11.1 °C 7.0 °C 1018.5 hPa SSE 4.8 km/h 11.3 km/h 76 % 0.0 mm 323 W/m2
13:10 11.2 °C 7.3 °C 1018.2 hPa South 11.3 km/h 12.9 km/h 77 % 0.0 mm 329 W/m2
13:15 11.2 °C 7.3 °C 1018.2 hPa South 8.0 km/h 12.9 km/h 77 % 0.0 mm 271 W/m2
13:20 11.0 °C 6.5 °C 1018.5 hPa SSW 11.3 km/h 14.5 km/h 74 % 0.0 mm 253 W/m2
13:25 11.0 °C 6.9 °C 1018.2 hPa South 9.7 km/h 14.5 km/h 76 % 0.0 mm 253 W/m2
13:30 11.0 °C 6.5 °C 1018.2 hPa South 3.2 km/h 16.1 km/h 74 % 0.0 mm 243 W/m2
13:35 11.0 °C 6.3 °C 1018.2 hPa SSW 4.8 km/h 16.1 km/h 73 % 0.0 mm 264 W/m2
13:40 11.1 °C 6.4 °C 1018.2 hPa South 6.4 km/h 11.3 km/h 73 % 0.0 mm 283 W/m2
13:45 11.1 °C 6.6 °C 1017.8 hPa SSW 6.4 km/h 11.3 km/h 74 % 0.0 mm 243 W/m2
13:50 11.1 °C 6.6 °C 1017.8 hPa South 6.4 km/h 11.3 km/h 74 % 0.0 mm 269 W/m2
13:55 11.3 °C 6.6 °C 1017.8 hPa South 3.2 km/h 11.3 km/h 73 % 0.0 mm 322 W/m2
14:00 11.4 °C 6.7 °C 1017.5 hPa SSE 4.8 km/h 11.3 km/h 73 % 0.0 mm 357 W/m2
14:05 11.6 °C 6.9 °C 1017.5 hPa South 11.3 km/h 11.3 km/h 73 % 0.0 mm 311 W/m2
14:10 11.4 °C 6.4 °C 1017.5 hPa SSE 1.6 km/h 11.3 km/h 71 % 0.0 mm 327 W/m2
14:15 11.6 °C 6.5 °C 1017.5 hPa South 1.6 km/h 11.3 km/h 71 % 0.0 mm 322 W/m2
14:20 11.6 °C 6.3 °C 1017.5 hPa SSE 4.8 km/h 11.3 km/h 70 % 0.0 mm 339 W/m2
14:25 11.6 °C 6.1 °C 1017.5 hPa SSW 11.3 km/h 14.5 km/h 69 % 0.0 mm 323 W/m2
14:30 11.5 °C 6.0 °C 1017.2 hPa South 8.0 km/h 14.5 km/h 69 % 0.0 mm 346 W/m2
14:35 11.7 °C 6.0 °C 1017.2 hPa South 4.8 km/h 14.5 km/h 68 % 0.0 mm 348 W/m2
14:40 11.7 °C 6.0 °C 1017.2 hPa SW 8.0 km/h 14.5 km/h 68 % 0.0 mm 309 W/m2
14:45 11.8 °C 6.1 °C 1017.2 hPa SE 1.6 km/h 12.9 km/h 68 % 0.0 mm 330 W/m2
14:50 11.8 °C 5.9 °C 1017.2 hPa South 9.7 km/h 12.9 km/h 67 % 0.0 mm 301 W/m2
14:55 11.7 °C 5.1 °C 1016.8 hPa SSW 12.9 km/h 16.1 km/h 64 % 0.0 mm 271 W/m2
15:00 11.6 °C 5.2 °C 1016.8 hPa SSE 6.4 km/h 16.1 km/h 65 % 0.0 mm 341 W/m2
15:05 11.7 °C 4.9 °C 1016.8 hPa SSW 11.3 km/h 16.1 km/h 63 % 0.0 mm 323 W/m2
15:10 11.7 °C 4.6 °C 1016.8 hPa South 6.4 km/h 16.1 km/h 62 % 0.0 mm 308 W/m2
15:15 11.7 °C 5.3 °C 1016.8 hPa SSW 9.7 km/h 14.5 km/h 65 % 0.0 mm 360 W/m2
15:20 11.9 °C 5.6 °C 1016.5 hPa SW 6.4 km/h 14.5 km/h 65 % 0.0 mm 306 W/m2
15:25 12.0 °C 5.4 °C 1016.5 hPa SSE 9.7 km/h 12.9 km/h 64 % 0.0 mm 388 W/m2
15:30 12.1 °C 5.9 °C 1016.5 hPa SSW 4.8 km/h 12.9 km/h 66 % 0.0 mm 339 W/m2
15:40 12.0 °C 5.6 °C 1016.5 hPa South 11.3 km/h 16.1 km/h 65 % 0.0 mm 332 W/m2
15:45 11.9 °C 5.6 °C 1016.5 hPa SSW 16.1 km/h 16.1 km/h 65 % 0.0 mm 362 W/m2
15:50 12.1 °C 6.1 °C 1016.1 hPa SSE 6.4 km/h 16.1 km/h 67 % 0.0 mm 360 W/m2
15:55 12.2 °C 6.4 °C 1016.1 hPa WSW 9.7 km/h 16.1 km/h 68 % 0.0 mm 330 W/m2
16:00 12.1 °C 6.3 °C 1016.1 hPa South 9.7 km/h 17.7 km/h 68 % 0.0 mm 253 W/m2
16:05 11.8 °C 6.3 °C 1016.1 hPa South 3.2 km/h 17.7 km/h 69 % 0.0 mm 258 W/m2
16:10 11.8 °C 6.3 °C 1016.1 hPa SSW 9.7 km/h 16.1 km/h 69 % 0.0 mm 234 W/m2
16:15 11.7 °C 6.4 °C 1016.1 hPa SSE 6.4 km/h 12.9 km/h 70 % 0.0 mm 223 W/m2
16:20 11.7 °C 6.4 °C 1016.1 hPa South 6.4 km/h 14.5 km/h 70 % 0.0 mm 223 W/m2
16:25 11.7 °C 6.2 °C 1016.1 hPa SSW 6.4 km/h 19.3 km/h 69 % 0.0 mm 236 W/m2
16:30 11.7 °C 6.0 °C 1015.8 hPa South 8.0 km/h 19.3 km/h 68 % 0.0 mm 216 W/m2
16:35 11.7 °C 6.6 °C 1015.8 hPa SSW 4.8 km/h 16.1 km/h 71 % 0.0 mm 199 W/m2
16:40 11.6 °C 6.3 °C 1015.8 hPa South 6.4 km/h 12.9 km/h 70 % 0.0 mm 209 W/m2
16:45 11.5 °C 6.0 °C 1015.8 hPa SW 4.8 km/h 12.9 km/h 69 % 0.0 mm 172 W/m2
16:50 11.3 °C 6.1 °C 1015.8 hPa West 4.8 km/h 12.9 km/h 70 % 0.0 mm 178 W/m2
16:55 11.4 °C 5.9 °C 1015.8 hPa SSW 1.6 km/h 11.3 km/h 69 % 0.0 mm 149 W/m2
17:00 11.3 °C 5.8 °C 1015.8 hPa SSW 6.4 km/h 11.3 km/h 69 % 0.0 mm 118 W/m2
17:05 11.2 °C 5.9 °C 1015.5 hPa SW 1.6 km/h 11.3 km/h 70 % 0.0 mm 141 W/m2
17:10 11.1 °C 6.0 °C 1015.8 hPa SSW 6.4 km/h 8.0 km/h 71 % 0.0 mm 132 W/m2
17:15 11.1 °C 6.0 °C 1015.5 hPa South 4.8 km/h 9.7 km/h 71 % 0.0 mm 134 W/m2
17:20 11.1 °C 6.0 °C 1015.5 hPa SSW 6.4 km/h 12.9 km/h 71 % 0.0 mm 120 W/m2
17:25 11.1 °C 5.8 °C 1015.5 hPa SSW 6.4 km/h 12.9 km/h 70 % 0.0 mm 120 W/m2
17:30 11.0 °C 5.7 °C 1015.5 hPa SW 8.0 km/h 11.3 km/h 70 % 0.0 mm 93 W/m2
17:35 10.9 °C 5.9 °C 1015.5 hPa SSW 4.8 km/h 11.3 km/h 71 % 0.0 mm 74 W/m2
17:40 10.8 °C 6.2 °C 1015.5 hPa SSW 1.6 km/h 11.3 km/h 73 % 0.0 mm 81 W/m2
17:45 10.8 °C 6.5 °C 1015.5 hPa SSW 1.6 km/h 6.4 km/h 75 % 0.0 mm 72 W/m2
17:50 10.7 °C 6.5 °C 1015.1 hPa SSW 4.8 km/h 8.0 km/h 75 % 0.0 mm 54 W/m2
17:55 10.7 °C 6.6 °C 1015.1 hPa SSW 1.6 km/h 8.0 km/h 76 % 0.0 mm 51 W/m2
18:00 10.6 °C 6.9 °C 1015.1 hPa SSW 4.8 km/h 8.0 km/h 78 % 0.0 mm 44 W/m2
18:05 10.5 °C 7.0 °C 1015.1 hPa SSW 4.8 km/h 8.0 km/h 79 % 0.0 mm 35 W/m2
18:10 10.4 °C 7.1 °C 1014.8 hPa SSW 4.8 km/h 8.0 km/h 80 % 0.0 mm 28 W/m2
18:15 10.3 °C 7.0 °C 1014.8 hPa SSW 3.2 km/h 8.0 km/h 80 % 0.0 mm 25 W/m2
18:20 10.3 °C 6.8 °C 1014.8 hPa South 8.0 km/h 8.0 km/h 79 % 0.0 mm 21 W/m2
18:25 10.3 °C 6.8 °C 1014.8 hPa South 3.2 km/h 9.7 km/h 79 % 0.0 mm 16 W/m2
18:30 10.2 °C 6.7 °C 1014.8 hPa South 4.8 km/h 9.7 km/h 79 % 0.0 mm 12 W/m2
18:35 10.1 °C 6.8 °C 1014.8 hPa South 4.8 km/h 8.0 km/h 80 % 0.0 mm 9 W/m2
18:40 10.0 °C 6.5 °C 1014.8 hPa South 3.2 km/h 8.0 km/h 79 % 0.0 mm 7 W/m2
18:45 10.0 °C 6.5 °C 1014.8 hPa SSE 8.0 km/h 9.7 km/h 79 % 0.0 mm 5 W/m2
18:50 9.9 °C 6.5 °C 1014.8 hPa South 4.8 km/h 9.7 km/h 79 % 0.0 mm 0 W/m2
18:55 9.7 °C 6.6 °C 1014.8 hPa South 3.2 km/h 8.0 km/h 81 % 0.0 mm 0 W/m2
19:00 9.7 °C 6.6 °C 1014.8 hPa SSE 1.6 km/h 6.4 km/h 81 % 0.0 mm 0 W/m2
19:05 9.6 °C 6.6 °C 1014.4 hPa SSE 1.6 km/h 6.4 km/h 82 % 0.0 mm 0 W/m2
19:10 9.4 °C 6.5 °C 1014.4 hPa Calm   4.8 km/h 82 % 0.0 mm 0 W/m2
19:15 9.3 °C 6.6 °C 1014.4 hPa SSE 3.2 km/h 4.8 km/h 83 % 0.0 mm 0 W/m2
19:20 9.2 °C 6.5 °C 1014.4 hPa Calm   4.8 km/h 83 % 0.0 mm 0 W/m2
19:25 9.2 °C 6.6 °C 1014.4 hPa Calm   4.8 km/h 84 % 0.0 mm 0 W/m2
19:30 9.1 °C 6.5 °C 1014.4 hPa Calm   4.8 km/h 84 % 0.0 mm 0 W/m2
19:35 9.0 °C 6.6 °C 1014.4 hPa Calm   3.2 km/h 85 % 0.0 mm 0 W/m2
19:40 8.9 °C 6.6 °C 1014.4 hPa Calm   3.2 km/h 85 % 0.0 mm 0 W/m2
19:45 8.8 °C 6.6 °C 1014.1 hPa SSE 3.2 km/h 3.2 km/h 86 % 0.0 mm 0 W/m2
19:50 8.8 °C 6.4 °C 1014.1 hPa SSE 3.2 km/h 3.2 km/h 85 % 0.0 mm 0 W/m2
19:55 8.8 °C 6.6 °C 1014.1 hPa Calm   3.2 km/h 86 % 0.0 mm 0 W/m2
20:00 8.8 °C 6.6 °C 1014.1 hPa SSE 1.6 km/h 3.2 km/h 86 % 0.0 mm 0 W/m2
20:05 8.7 °C 6.3 °C 1014.1 hPa Calm   3.2 km/h 85 % 0.0 mm 0 W/m2
20:10 8.7 °C 6.5 °C 1013.8 hPa Calm   4.8 km/h 86 % 0.0 mm 0 W/m2
20:15 8.6 °C 6.3 °C 1013.8 hPa Calm   4.8 km/h 86 % 0.0 mm 0 W/m2
20:20 8.5 °C 6.3 °C 1013.8 hPa Calm   3.2 km/h 86 % 0.0 mm 0 W/m2
20:25 8.2 °C 6.1 °C 1013.8 hPa Calm   1.6 km/h 87 % 0.0 mm 0 W/m2
20:30 7.9 °C 6.1 °C 1013.4 hPa Calm   3.2 km/h 88 % 0.0 mm 0 W/m2
20:35 8.1 °C 6.2 °C 1013.1 hPa Calm   3.2 km/h 88 % 0.0 mm 0 W/m2
20:40 8.1 °C 6.1 °C 1013.1 hPa Calm   3.2 km/h 87 % 0.0 mm 0 W/m2
20:45 8.0 °C 6.1 °C 1013.1 hPa Calm   4.8 km/h 88 % 0.0 mm 0 W/m2
20:50 7.9 °C 6.0 °C 1013.1 hPa Calm   4.8 km/h 88 % 0.0 mm 0 W/m2
20:55 7.8 °C 6.1 °C 1013.1 hPa Calm   1.6 km/h 89 % 0.0 mm 0 W/m2
21:00 7.7 °C 6.1 °C 1013.1 hPa Calm     90 % 0.0 mm 0 W/m2
21:10 7.7 °C 6.3 °C 1013.1 hPa Calm   1.6 km/h 91 % 0.0 mm 0 W/m2
21:15 7.9 °C 6.5 °C 1012.8 hPa SSE 1.6 km/h 1.6 km/h 91 % 0.0 mm 0 W/m2
21:20 8.1 °C 6.4 °C 1012.8 hPa Calm   3.2 km/h 89 % 0.0 mm 0 W/m2
21:30 8.1 °C 6.4 °C 1012.8 hPa SSE 1.6 km/h 3.2 km/h 89 % 0.0 mm 0 W/m2
21:40 8.3 °C 6.3 °C 1012.4 hPa Calm   1.6 km/h 87 % 0.0 mm 0 W/m2
21:50 8.4 °C 6.3 °C 1012.4 hPa Calm   6.4 km/h 87 % 0.0 mm 0 W/m2
21:55 8.4 °C 6.4 °C 1012.4 hPa Calm   6.4 km/h 87 % 0.0 mm 0 W/m2
22:00 8.4 °C 6.4 °C 1012.4 hPa ESE 4.8 km/h 4.8 km/h 87 % 0.0 mm 0 W/m2
22:05 8.4 °C 6.6 °C 1012.4 hPa ESE 3.2 km/h 6.4 km/h 88 % 0.0 mm 0 W/m2
22:10 8.6 °C 6.7 °C 1012.4 hPa ESE 4.8 km/h 6.4 km/h 88 % 0.0 mm 0 W/m2
22:15 8.7 °C 6.8 °C 1012.1 hPa Calm   8.0 km/h 88 % 0.0 mm 0 W/m2
22:20 8.7 °C 7.0 °C 1012.1 hPa SSE 4.8 km/h 9.7 km/h 89 % 0.0 mm 0 W/m2
22:25 8.8 °C 7.1 °C 1012.1 hPa SE 3.2 km/h 9.7 km/h 89 % 0.0 mm 0 W/m2
22:30 8.8 °C 7.1 °C 1012.1 hPa SSE 12.9 km/h 16.1 km/h 89 % 0.0 mm 0 W/m2
22:35 8.8 °C 7.2 °C 1012.1 hPa SSE 6.4 km/h 16.1 km/h 90 % 0.0 mm 0 W/m2
22:40 8.8 °C 7.2 °C 1011.7 hPa SE 6.4 km/h 12.9 km/h 90 % 0.0 mm 0 W/m2
22:45 8.8 °C 7.2 °C 1011.7 hPa SE 6.4 km/h 12.9 km/h 90 % 0.0 mm 0 W/m2
22:50 8.8 °C 7.4 °C 1011.7 hPa SSE 6.4 km/h 12.9 km/h 91 % 0.0 mm 0 W/m2
22:55 8.8 °C 7.4 °C 1011.4 hPa SSE 3.2 km/h 12.9 km/h 91 % 0.0 mm 0 W/m2
23:00 8.8 °C 7.4 °C 1011.4 hPa SSE 4.8 km/h 12.9 km/h 91 % 0.0 mm 0 W/m2
23:05 8.9 °C 7.5 °C 1011.4 hPa SSE 6.4 km/h 12.9 km/h 91 % 0.0 mm 0 W/m2
23:10 8.9 °C 7.6 °C 1011.1 hPa SE 3.2 km/h 12.9 km/h 91 % 0.0 mm 0 W/m2
23:15 8.9 °C 7.6 °C 1010.7 hPa SSE 3.2 km/h 12.9 km/h 91 % 0.0 mm 0 W/m2
23:25 9.1 °C 7.7 °C 1010.7 hPa SE 6.4 km/h 12.9 km/h 91 % 0.0 mm 0 W/m2
23:30 9.2 °C 7.6 °C 1010.7 hPa SE 4.8 km/h 12.9 km/h 90 % 0.3 mm 0 W/m2
23:35 9.2 °C 7.7 °C 1010.7 hPa South 8.0 km/h 17.7 km/h 90 % 0.3 mm 0 W/m2
23:40 9.3 °C 7.7 °C 1010.4 hPa SSE 4.8 km/h 17.7 km/h 90 % 0.3 mm 0 W/m2
23:45 9.3 °C 7.6 °C 1010.4 hPa SSE 9.7 km/h 14.5 km/h 89 % 0.3 mm 0 W/m2
23:50 9.3 °C 7.6 °C 1010.4 hPa SE 8.0 km/h 19.3 km/h 89 % 0.3 mm 0 W/m2
23:55 9.3 °C 7.6 °C 1010.4 hPa SSE 14.5 km/h 19.3 km/h 89 % 0.3 mm 0 W/m2
Avec l'autorisation de Weather Underground - 1.75 mb